Terminal Aerodrome Forecast
Issued by NWS

Home | Current Version | Previous Version | Graphics & Text | Print | Product List | Glossary On
Versions: 1 2 3 4 5 6 7 8 9 10 11 12 13 14 15 16 17 18 19 20 21 22 23
692
FTUS42 KMHX 302323
TAFISO
TAF
KISO 302323Z 0100/0124 09005KT P6SM SCT015 BKN035
     FM010600 VRB04KT P6SM BKN007
     FM011200 16005KT P6SM BKN015
     FM011400 20010KT P6SM SCT040 BKN120
      AMD LTD TO CLD VIS AND WIND=

USA.gov is the U.S. government's official web portal to all federal, state and local government web resources and services.